Tropical Cyclones
[Index]
Main Index Home Page Stock Weather Photos Extreme Storms Discussion Storm News and Storm Chasing Reports Tropical Cyclones / Hurricanes / Typhoons Weather Data and Links Wild Fires / Bushfires Weather Observation Techniques Weather Picture Catalogue Tornado Pictures and Reports Stock Video Footage and DVDs for sale
Season 1997-1998 Tropical Cyclone ANACELLE Track Map
Season 1997-1998 Summaries: [BoM-AU] [JTWC-AU] [JTWC-SIO] [JTWC-SPAC] [JTWC-SH]
<<- Previous TC | JTWC 1997-1998 Season | Next TC ->>

click for intensity scale information  Lat/long Grid: Show Hide

 Date Labels: Show Hide

Joint Typhoon Warning Centre Cyclone Data

Name: ANACELLE

05 Feb 1998 00:00 UTC to 13 Feb 1998 18:00 UTC

    date/time    lat    long     hPa   cat  kts
1998-02-05 00   12.7    66.2                  20          
1998-02-05 06   12.7    65.7                  20          
1998-02-05 12   12.7    65.1                  20          
1998-02-05 18   12.8    64.6                  20          
1998-02-06 00   12.9    64.4                  25          
1998-02-06 06   13.0    64.2                  25          
1998-02-06 12   13.0    64.0                  25          
1998-02-06 18   13.0    63.6                  25          
1998-02-07 00   13.1    63.4                  25          
1998-02-07 06   13.1    63.1                  25          
1998-02-07 12   13.1    62.7                  25          
1998-02-07 18   13.0    62.1                  25          
1998-02-08 00   13.0    61.6                  35          
1998-02-08 06   13.1    61.4            1     40          
1998-02-08 12   13.2    61.3            1     40          
1998-02-08 18   13.3    61.2            1     40          
1998-02-09 00   13.5    61.1            1     45          
1998-02-09 06   13.8    61.1            1     50          
1998-02-09 12   14.1    61.0            2     60          
1998-02-09 18   14.4    60.8            2     70          
1998-02-10 00   14.8    60.6            3     80          
1998-02-10 06   15.6    60.2            3     90          
1998-02-10 12   16.4    59.8            3     90          
1998-02-10 18   17.3    59.4            3     90          
1998-02-11 00   18.4    59.2            4    100          
1998-02-11 06   19.6    59.2            4    105          
1998-02-11 12   20.9    59.3            4    115          
1998-02-11 18   22.0    59.5            4    115          
1998-02-12 00   23.1    59.8            4    105          
1998-02-12 06   24.2    60.2            4    105          
1998-02-12 12   25.3    60.6            4    100          
1998-02-12 18   26.5    61.2            3     90          
1998-02-13 00   27.7    62.6            3     75          
1998-02-13 06   29.0    64.4            2     55          
1998-02-13 12   30.5    66.6            2     60          
1998-02-13 18   32.6    69.5            1     50          
Winds are 1-min average.

Tropical cyclone tracks developed by Michael Bath using data from the Joint Typhoon Warning Centre Best Tracks and Google Maps.


[Australian Severe Weather index] [Copyright Notice] [Email Contacts] [Search This Site] [Privacy Policy]
Document: tropical_cyclone_anacelle.htm Updated: 18 September 2016